Time;durP1;ratioP1;P1;durP2;ratioP2;P2;SDS_P1;SDS_P2;PMS_P1;PMS_P2;Temp;Humidity;BMP_temperature;BMP_pressure;BME280_temperature;BME280_humidity;BME280_pressure;Samples;Min_cycle;Max_cycle;Signal;HPM_P1;HPM_P2
2022/04/09 00:02:06;;;;;;;8.68;1.67;;;3.80;99.90;;;;;;6186935;23;20017;-81
2022/04/09 00:04:32;;;;;;;6.85;1.45;;;3.80;99.90;;;;;;6187296;23;20040;-81
2022/04/09 00:06:57;;;;;;;8.48;1.52;;;3.80;99.90;;;;;;6161200;23;20064;-81
2022/04/09 00:09:23;;;;;;;11.23;1.48;;;3.70;99.90;;;;;;6161495;23;20482;-81
2022/04/09 00:11:49;;;;;;;8.63;1.23;;;3.70;99.90;;;;;;6185934;23;20079;-80
2022/04/09 00:14:15;;;;;;;8.68;1.60;;;3.70;99.90;;;;;;6185854;23;20144;-81
2022/04/09 00:16:41;;;;;;;5.68;1.67;;;3.70;99.90;;;;;;6186177;23;20016;-81
2022/04/09 00:19:06;;;;;;;8.63;2.13;;;3.70;99.90;;;;;;6186200;23;20084;-80
2022/04/09 00:21:32;;;;;;;7.75;1.88;;;3.60;99.90;;;;;;6185848;23;20024;-81
2022/04/09 00:23:58;;;;;;;10.82;1.60;;;3.60;99.90;;;;;;6185809;23;20481;-81
2022/04/09 00:26:24;;;;;;;5.07;1.75;;;3.50;99.90;;;;;;6186179;23;20017;-81
2022/04/09 00:28:49;;;;;;;7.18;1.27;;;3.50;99.90;;;;;;6186584;23;20020;-81
2022/04/09 00:31:15;;;;;;;8.18;1.48;;;3.50;99.90;;;;;;6185413;23;20009;-81
2022/04/09 00:33:40;;;;;;;10.38;3.03;;;3.60;99.90;;;;;;6185980;23;20017;-81
2022/04/09 00:36:06;;;;;;;9.15;1.80;;;3.60;99.90;;;;;;6161550;23;20077;-81
2022/04/09 00:38:31;;;;;;;8.57;1.70;;;3.50;99.90;;;;;;6186274;23;20111;-81
2022/04/09 00:40:57;;;;;;;6.50;1.23;;;3.50;99.90;;;;;;6185940;23;20029;-81
2022/04/09 00:43:23;;;;;;;9.73;1.42;;;3.50;99.90;;;;;;6161010;23;20680;-81
2022/04/09 00:45:49;;;;;;;17.35;2.42;;;3.50;99.90;;;;;;6186669;23;20013;-81
2022/04/09 00:48:16;;;;;;;6.35;2.33;;;3.40;99.90;;;;;;6188094;23;20032;-81
2022/04/09 00:50:41;;;;;;;8.40;1.83;;;3.40;99.90;;;;;;6186467;23;20048;-81
2022/04/09 00:53:09;;;;;;;8.73;1.63;;;3.40;99.90;;;;;;6186310;23;20446;-80
2022/04/09 00:58:20;;;;;;;11.43;2.25;;;3.40;99.90;;;;;;6184840;23;20028;-81
2022/04/09 01:00:46;;;;;;;6.70;1.67;;;3.40;99.90;;;;;;6184183;23;20017;-81
2022/04/09 01:03:16;;;;;;;7.22;1.63;;;3.50;99.90;;;;;;6185709;23;20021;-81
2022/04/09 01:05:43;;;;;;;6.85;1.80;;;3.60;99.90;;;;;;6186180;23;20009;-83
2022/04/09 01:08:09;;;;;;;7.60;1.45;;;3.70;99.90;;;;;;6185778;23;20011;-81
2022/04/09 01:10:36;;;;;;;6.30;2.05;;;3.70;99.90;;;;;;6159501;23;20008;-81
2022/04/09 01:13:02;;;;;;;4.28;1.13;;;3.70;99.90;;;;;;6184524;23;20332;-81
2022/04/09 01:15:28;;;;;;;15.38;1.95;;;3.70;99.90;;;;;;6185256;23;20027;-81
2022/04/09 01:17:53;;;;;;;11.45;1.58;;;3.70;99.90;;;;;;6160647;23;20024;-82
2022/04/09 01:20:22;;;;;;;10.13;2.05;;;3.70;99.90;;;;;;6159939;23;20016;-81
2022/04/09 01:22:48;;;;;;;7.45;2.03;;;3.60;99.90;;;;;;6160382;23;20021;-81
2022/04/09 01:25:14;;;;;;;4.35;1.38;;;3.60;99.90;;;;;;6186559;23;20031;-81
2022/04/09 01:27:40;;;;;;;7.57;1.38;;;3.60;99.90;;;;;;6187058;23;20320;-81
2022/04/09 01:30:07;;;;;;;2.92;1.27;;;3.50;99.90;;;;;;6169441;23;20020;-80
2022/04/09 01:32:32;;;;;;;5.43;1.10;;;3.60;99.90;;;;;;6196063;23;20020;-82
2022/04/09 01:35:02;;;;;;;5.07;1.30;;;3.60;99.90;;;;;;6186518;23;20017;-81
2022/04/09 01:37:28;;;;;;;7.50;1.10;;;3.60;99.90;;;;;;6182372;23;20026;-81
2022/04/09 01:39:53;;;;;;;9.05;1.48;;;3.60;99.90;;;;;;6183674;23;20017;-81
2022/04/09 01:42:21;;;;;;;6.45;1.60;;;3.60;99.90;;;;;;6158955;23;20084;-84
2022/04/09 01:44:47;;;;;;;4.45;1.05;;;3.60;99.90;;;;;;6184946;23;20021;-81
2022/04/09 01:47:13;;;;;;;5.15;1.40;;;3.60;99.90;;;;;;6183942;23;20009;-81
2022/04/09 01:49:39;;;;;;;4.22;1.02;;;3.50;99.90;;;;;;6159841;23;20060;-81
2022/04/09 01:52:04;;;;;;;6.85;1.08;;;3.40;99.90;;;;;;6185542;23;20073;-81
2022/04/09 01:54:30;;;;;;;6.60;1.05;;;3.50;99.90;;;;;;6182977;23;20024;-81
2022/04/09 01:56:55;;;;;;;10.93;1.65;;;3.50;99.90;;;;;;6185106;23;20089;-81
2022/04/09 01:59:21;;;;;;;12.00;2.55;;;3.50;99.90;;;;;;6182962;23;20017;-81
2022/04/09 02:01:48;;;;;;;11.50;1.33;;;3.60;99.90;;;;;;6182717;23;20024;-81
2022/04/09 02:04:15;;;;;;;7.72;1.17;;;3.60;99.90;;;;;;6183943;23;20056;-80
2022/04/09 02:06:42;;;;;;;6.50;1.20;;;3.70;99.90;;;;;;6185790;23;20385;-80
2022/04/09 02:09:11;;;;;;;7.82;1.10;;;3.70;99.90;;;;;;6185679;23;20013;-81
2022/04/09 02:11:39;;;;;;;9.23;1.48;;;3.70;99.90;;;;;;6160159;23;20372;-81
2022/04/09 02:14:05;;;;;;;5.57;1.20;;;3.70;99.90;;;;;;6186289;23;20451;-81
2022/04/09 02:16:31;;;;;;;3.03;1.00;;;3.60;99.90;;;;;;6185291;23;20017;-81
2022/04/09 02:18:57;;;;;;;6.38;0.95;;;3.60;99.90;;;;;;6185945;23;20080;-80
2022/04/09 02:21:22;;;;;;;5.35;1.20;;;3.60;99.90;;;;;;6185911;23;20093;-81
2022/04/09 02:23:48;;;;;;;3.55;0.95;;;3.50;99.90;;;;;;6185541;23;20013;-81
2022/04/09 02:26:13;;;;;;;6.35;1.10;;;3.40;99.90;;;;;;6184026;23;20017;-81
2022/04/09 02:28:39;;;;;;;4.15;1.52;;;3.40;99.90;;;;;;6184203;23;20017;-81
2022/04/09 02:31:04;;;;;;;6.57;1.55;;;3.40;99.90;;;;;;6184625;23;20443;-83
2022/04/09 02:33:30;;;;;;;7.97;1.38;;;3.40;99.90;;;;;;6161784;23;20013;-81
2022/04/09 02:35:56;;;;;;;6.35;1.20;;;3.40;99.90;;;;;;6187009;23;20040;-81
2022/04/09 02:38:22;;;;;;;5.55;1.20;;;3.40;99.90;;;;;;6162149;23;20027;-81
2022/04/09 02:40:48;;;;;;;3.22;1.13;;;3.50;99.90;;;;;;6186491;23;20385;-81
2022/04/09 02:43:13;;;;;;;6.78;1.08;;;3.50;99.90;;;;;;6187343;23;20013;-81
2022/04/09 02:45:39;;;;;;;5.43;1.10;;;3.60;99.90;;;;;;6186543;23;20092;-82
2022/04/09 02:48:04;;;;;;;6.45;1.33;;;3.60;99.90;;;;;;6186347;23;20009;-81
2022/04/09 02:50:30;;;;;;;2.83;0.80;;;3.60;99.90;;;;;;6186387;23;20319;-81
2022/04/09 02:52:55;;;;;;;4.30;0.77;;;3.60;99.90;;;;;;6188007;23;20434;-82
2022/04/09 02:55:21;;;;;;;3.85;0.85;;;3.60;99.90;;;;;;6186753;23;20020;-83
2022/04/09 02:57:46;;;;;;;9.25;1.73;;;3.50;99.90;;;;;;6187890;23;20032;-81
2022/04/09 03:00:13;;;;;;;1.65;0.85;;;3.50;99.90;;;;;;6186951;23;20045;-81
2022/04/09 03:02:42;;;;;;;5.63;0.95;;;3.40;99.90;;;;;;6187310;23;20013;-81
2022/04/09 03:05:08;;;;;;;4.20;0.70;;;3.40;99.90;;;;;;6187980;23;20517;-82
2022/04/09 03:07:34;;;;;;;6.38;0.90;;;3.30;99.90;;;;;;6186029;23;20085;-82
2022/04/09 03:09:59;;;;;;;5.93;1.27;;;3.30;99.90;;;;;;6187671;23;20013;-82
2022/04/09 03:12:25;;;;;;;4.22;0.93;;;3.30;99.90;;;;;;6187814;23;20092;-80
2022/04/09 03:14:50;;;;;;;2.08;1.02;;;3.30;99.90;;;;;;6187261;23;20044;-81
2022/04/09 03:17:16;;;;;;;6.40;1.17;;;3.40;99.90;;;;;;6188706;23;20044;-81
2022/04/09 03:19:41;;;;;;;6.43;1.08;;;3.40;99.90;;;;;;6187456;23;20013;-81
2022/04/09 03:22:07;;;;;;;5.03;1.17;;;3.50;99.90;;;;;;6186594;23;20103;-80
2022/04/09 03:24:32;;;;;;;5.40;1.00;;;3.50;99.90;;;;;;6189364;23;20027;-81
2022/04/09 03:26:58;;;;;;;8.88;2.08;;;3.60;99.90;;;;;;6187399;23;20005;-81
2022/04/09 03:29:23;;;;;;;4.35;0.80;;;3.60;99.90;;;;;;6188353;23;20048;-81
2022/04/09 03:31:49;;;;;;;2.15;0.73;;;3.70;99.90;;;;;;6164916;23;20013;-81
2022/04/09 03:34:15;;;;;;;2.42;0.73;;;3.60;99.90;;;;;;6188867;23;20017;-81
2022/04/09 03:36:42;;;;;;;6.03;0.90;;;3.50;99.90;;;;;;6163997;23;20020;-81
2022/04/09 03:39:08;;;;;;;3.53;1.15;;;3.50;99.90;;;;;;6188600;23;20020;-81
2022/04/09 03:41:33;;;;;;;2.38;0.95;;;3.40;99.90;;;;;;6188641;23;20016;-80
2022/04/09 03:43:59;;;;;;;6.15;1.15;;;3.40;99.90;;;;;;6189336;23;20355;-81
2022/04/09 03:46:25;;;;;;;2.70;0.82;;;3.30;99.90;;;;;;6163765;23;20436;-81
2022/04/09 03:48:50;;;;;;;6.13;1.13;;;3.20;99.90;;;;;;6187744;23;20013;-81
2022/04/09 03:51:16;;;;;;;3.55;1.00;;;3.20;99.90;;;;;;6186691;23;20017;-81
2022/04/09 03:53:41;;;;;;;7.45;1.23;;;3.10;99.90;;;;;;6188291;23;20017;-80
2022/04/09 03:56:07;;;;;;;4.60;0.75;;;3.20;99.90;;;;;;6185553;23;20085;-82
2022/04/09 03:58:35;;;;;;;3.25;1.02;;;3.10;99.90;;;;;;6185076;23;20023;-80
2022/04/09 04:01:01;;;;;;;8.40;1.35;;;3.10;99.90;;;;;;6186628;23;20025;-82
2022/04/09 04:03:27;;;;;;;4.57;1.00;;;3.10;99.90;;;;;;6184878;23;20348;-81
2022/04/09 04:05:53;;;;;;;6.13;0.88;;;3.00;99.90;;;;;;6184323;23;20009;-82
2022/04/09 04:08:18;;;;;;;2.80;0.60;;;3.00;99.90;;;;;;6184648;23;20370;-81
2022/04/09 04:10:44;;;;;;;5.57;1.10;;;3.00;99.90;;;;;;6186046;23;20016;-81
2022/04/09 04:13:11;;;;;;;11.77;2.15;;;3.00;99.90;;;;;;6185614;23;20078;-81
2022/04/09 04:15:37;;;;;;;1.60;0.80;;;2.90;99.90;;;;;;6188379;23;20027;-81
2022/04/09 04:18:03;;;;;;;9.07;2.67;;;3.00;99.90;;;;;;6196936;23;20040;-81
2022/04/09 04:20:29;;;;;;;2.58;0.93;;;2.90;99.90;;;;;;6169777;23;20013;-81
2022/04/09 04:22:54;;;;;;;4.65;2.17;;;2.90;99.90;;;;;;6183148;23;20016;-81
2022/04/09 04:25:21;;;;;;;2.70;0.80;;;2.90;99.90;;;;;;6183885;23;20318;-81
2022/04/09 04:27:48;;;;;;;4.25;1.15;;;2.90;99.90;;;;;;6158952;23;20017;-81
2022/04/09 04:30:15;;;;;;;6.75;2.08;;;2.80;99.90;;;;;;6183153;23;20017;-81
2022/04/09 04:32:41;;;;;;;3.72;0.85;;;2.80;99.90;;;;;;6183377;23;20144;-81
2022/04/09 04:35:08;;;;;;;4.55;1.38;;;2.80;99.90;;;;;;6184045;23;20100;-81
2022/04/09 04:37:41;;;;;;;6.50;0.88;;;2.80;99.90;;;;;;6160275;23;20442;-81
2022/04/09 04:40:08;;;;;;;4.63;0.82;;;2.80;99.90;;;;;;6184217;23;20017;-80
2022/04/09 04:42:34;;;;;;;7.18;1.02;;;2.80;99.90;;;;;;6185483;23;20093;-81
2022/04/09 04:45:00;;;;;;;3.67;1.02;;;2.80;99.90;;;;;;6185600;23;20021;-81
2022/04/09 04:47:25;;;;;;;4.93;1.73;;;2.80;99.90;;;;;;6185320;23;20016;-80
2022/04/09 04:49:51;;;;;;;1.95;1.15;;;2.90;99.90;;;;;;6184892;23;20040;-81
2022/04/09 04:52:16;;;;;;;4.70;0.90;;;2.80;99.90;;;;;;6160619;23;20020;-81
2022/04/09 04:54:42;;;;;;;4.55;1.58;;;2.90;99.90;;;;;;6184763;23;20028;-81
2022/04/09 04:57:07;;;;;;;4.95;1.00;;;2.90;99.90;;;;;;6184654;23;20071;-80
2022/04/09 04:59:33;;;;;;;3.15;1.08;;;3.00;99.90;;;;;;6160218;23;20027;-81
2022/04/09 05:01:58;;;;;;;4.85;1.08;;;3.10;99.90;;;;;;6185868;23;20013;-82
2022/04/09 05:04:27;;;;;;;3.45;1.10;;;3.10;99.90;;;;;;6184956;23;20410;-81
2022/04/09 05:06:52;;;;;;;10.25;2.35;;;3.20;99.90;;;;;;6184510;23;20017;-81
2022/04/09 05:09:19;;;;;;;3.70;1.30;;;3.30;99.90;;;;;;6183782;23;20019;-81
2022/04/09 05:11:45;;;;;;;6.68;1.40;;;3.30;99.90;;;;;;6184423;23;20023;-82
2022/04/09 05:14:11;;;;;;;5.30;1.40;;;3.30;99.90;;;;;;6184634;23;20021;-81
2022/04/09 05:16:37;;;;;;;3.65;1.23;;;3.40;99.90;;;;;;6184518;23;20095;-81
2022/04/09 05:19:04;;;;;;;5.95;1.60;;;3.40;99.90;;;;;;6184323;23;20020;-83
2022/04/09 05:21:29;;;;;;;6.30;1.20;;;3.40;99.90;;;;;;6183880;23;20092;-81
2022/04/09 05:23:55;;;;;;;2.83;1.02;;;3.40;99.90;;;;;;6184362;23;20040;-80
2022/04/09 05:26:20;;;;;;;7.80;1.25;;;3.30;99.90;;;;;;6185929;23;20020;-81
2022/04/09 05:28:46;;;;;;;6.03;1.30;;;3.30;99.90;;;;;;6185624;23;20021;-81
2022/04/09 05:31:12;;;;;;;3.97;1.05;;;3.30;99.90;;;;;;6183784;23;20067;-81
2022/04/09 05:33:38;;;;;;;5.22;2.22;;;3.30;99.90;;;;;;6184656;23;20028;-82
2022/04/09 05:36:05;;;;;;;4.18;0.70;;;3.30;99.90;;;;;;6186445;23;20351;-81
2022/04/09 05:38:31;;;;;;;5.80;1.27;;;3.40;99.90;;;;;;6185228;23;20025;-81
2022/04/09 05:40:57;;;;;;;8.13;1.50;;;3.30;99.90;;;;;;6184080;23;20024;-81
2022/04/09 05:43:23;;;;;;;6.53;1.30;;;3.50;99.90;;;;;;6184959;23;20017;-81
2022/04/09 05:45:49;;;;;;;4.95;1.02;;;3.60;99.90;;;;;;6186172;23;20023;-80
2022/04/09 05:48:15;;;;;;;10.35;1.15;;;3.70;99.90;;;;;;6185601;23;20044;-81
2022/04/09 05:50:40;;;;;;;7.93;0.80;;;3.80;99.90;;;;;;6160534;23;20020;-81
2022/04/09 05:53:06;;;;;;;2.90;1.00;;;3.90;99.90;;;;;;6159508;23;20090;-81
2022/04/09 05:55:32;;;;;;;7.15;1.00;;;4.00;99.90;;;;;;6183962;23;20009;-81
2022/04/09 05:57:58;;;;;;;8.57;2.20;;;4.10;99.90;;;;;;6184143;23;20020;-81
2022/04/09 06:00:23;;;;;;;7.35;1.15;;;4.10;99.90;;;;;;6186231;23;20439;-81
2022/04/09 06:02:49;;;;;;;4.97;1.13;;;4.30;99.90;;;;;;6185633;23;20013;-81
2022/04/09 06:05:15;;;;;;;11.77;2.00;;;4.40;99.90;;;;;;6184512;23;20017;-82
2022/04/09 06:07:40;;;;;;;11.52;1.35;;;4.50;99.90;;;;;;6183577;23;20085;-82
2022/04/09 06:10:06;;;;;;;7.70;1.23;;;4.50;99.90;;;;;;6183808;23;20017;-81
2022/04/09 06:12:33;;;;;;;7.38;1.00;;;4.50;99.90;;;;;;6186200;23;20040;-81
2022/04/09 06:15:00;;;;;;;10.95;1.13;;;4.50;99.90;;;;;;6185435;23;20020;-81
2022/04/09 06:17:26;;;;;;;2.20;1.15;;;4.60;99.90;;;;;;6186755;23;20092;-81
2022/04/09 06:19:52;;;;;;;5.75;1.15;;;4.60;99.90;;;;;;6183969;23;20050;-81
2022/04/09 06:22:18;;;;;;;7.38;1.45;;;4.80;99.90;;;;;;6187542;23;20035;-81
2022/04/09 06:24:44;;;;;;;7.25;1.73;;;4.90;99.90;;;;;;6186970;23;20013;-81
2022/04/09 06:27:13;;;;;;;2.65;1.00;;;5.00;99.90;;;;;;6184447;23;20020;-81
2022/04/09 06:29:38;;;;;;;18.25;6.05;;;5.00;99.90;;;;;;6184303;23;20020;-80
2022/04/09 06:32:05;;;;;;;7.82;2.40;;;5.10;99.90;;;;;;6184931;23;20005;-80
2022/04/09 06:34:31;;;;;;;14.43;2.08;;;5.10;99.90;;;;;;6183368;23;20028;-80
2022/04/09 06:36:56;;;;;;;7.57;2.13;;;5.10;99.90;;;;;;6185226;23;20021;-81
2022/04/09 06:39:23;;;;;;;3.65;1.25;;;5.20;99.90;;;;;;6159596;23;20013;-83
2022/04/09 06:41:50;;;;;;;10.75;1.73;;;5.30;99.90;;;;;;6186698;23;20017;-80
2022/04/09 06:44:16;;;;;;;13.93;2.00;;;5.30;99.90;;;;;;6186162;23;20021;-82
2022/04/09 06:46:43;;;;;;;6.00;1.40;;;5.40;99.90;;;;;;6187951;23;20023;-82
2022/04/09 06:49:15;;;;;;;4.97;1.70;;;5.50;99.90;;;;;;6186990;23;20011;-81
2022/04/09 06:51:42;;;;;;;5.32;1.00;;;5.60;99.90;;;;;;6188212;23;20016;-81
2022/04/09 06:54:07;;;;;;;5.47;1.08;;;5.70;99.90;;;;;;6188789;23;20449;-81
2022/04/09 06:56:33;;;;;;;8.07;1.05;;;5.70;99.90;;;;;;6186748;23;20017;-81
2022/04/09 06:59:00;;;;;;;12.07;1.15;;;6.00;99.90;;;;;;6186225;23;20017;-80
2022/04/09 07:01:26;;;;;;;5.18;1.00;;;6.10;99.90;;;;;;6186227;23;20466;-80
2022/04/09 07:03:52;;;;;;;8.80;1.35;;;6.30;99.90;;;;;;6190867;23;20017;-79
2022/04/09 07:06:18;;;;;;;10.70;1.42;;;6.40;99.90;;;;;;6203572;23;20021;-80
2022/04/09 07:08:43;;;;;;;3.72;1.00;;;6.60;99.90;;;;;;6196051;23;20438;-80
2022/04/09 07:11:09;;;;;;;9.20;1.27;;;6.80;99.90;;;;;;6158579;23;20013;-81
2022/04/09 07:13:35;;;;;;;5.25;1.13;;;7.00;99.90;;;;;;6183485;23;20021;-80
2022/04/09 07:16:00;;;;;;;5.13;1.33;;;7.20;99.90;;;;;;6184749;23;20032;-81
2022/04/09 07:18:26;;;;;;;5.20;1.05;;;7.20;99.90;;;;;;6183842;23;20017;-80
2022/04/09 07:20:52;;;;;;;5.20;1.08;;;7.20;99.90;;;;;;6183115;23;20072;-81
2022/04/09 07:23:18;;;;;;;4.95;0.93;;;7.50;99.90;;;;;;6159907;23;20564;-81
2022/04/09 07:25:43;;;;;;;9.43;1.15;;;7.80;99.90;;;;;;6159699;23;20019;-81
2022/04/09 07:28:09;;;;;;;7.20;1.17;;;8.30;99.90;;;;;;6158890;23;20009;-82
2022/04/09 07:30:35;;;;;;;5.32;1.52;;;8.70;99.90;;;;;;6184063;23;20454;-81
2022/04/09 07:33:01;;;;;;;9.65;1.15;;;9.30;99.90;;;;;;6159253;23;20019;-82
2022/04/09 07:35:27;;;;;;;7.97;1.02;;;9.60;99.90;;;;;;6184183;23;20076;-83
2022/04/09 07:37:54;;;;;;;9.68;2.28;;;9.60;99.90;;;;;;6185420;23;20013;-81
2022/04/09 07:40:21;;;;;;;6.85;1.67;;;9.40;99.90;;;;;;6186222;23;20196;-82
2022/04/09 07:42:47;;;;;;;6.78;1.00;;;9.20;99.90;;;;;;6186426;23;20017;-82
2022/04/09 07:45:15;;;;;;;6.07;1.67;;;8.90;99.90;;;;;;6185009;23;20012;-82
2022/04/09 07:47:42;;;;;;;7.63;2.00;;;8.80;99.90;;;;;;6185156;23;20020;-81
2022/04/09 07:50:10;;;;;;;6.13;1.52;;;8.70;99.90;;;;;;6184358;23;20021;-80
2022/04/09 07:52:40;;;;;;;5.05;1.20;;;9.00;99.90;;;;;;6183972;23;20084;-82
2022/04/09 07:55:09;;;;;;;5.35;0.85;;;9.70;99.90;;;;;;6185066;23;20013;-81
2022/04/09 07:57:34;;;;;;;3.80;1.20;;;10.50;99.90;;;;;;6160031;23;20009;-81
2022/04/09 08:00:00;;;;;;;4.70;0.90;;;11.10;99.90;;;;;;6184199;23;20017;-82
2022/04/09 08:02:26;;;;;;;4.93;0.88;;;11.50;99.90;;;;;;6183690;23;20043;-81
2022/04/09 08:04:52;;;;;;;4.88;0.90;;;12.00;99.90;;;;;;6184349;23;20092;-81
2022/04/09 08:07:17;;;;;;;4.90;0.90;;;12.30;99.90;;;;;;6184405;23;20009;-81
2022/04/09 08:09:45;;;;;;;5.70;0.70;;;11.90;99.90;;;;;;6184361;23;20074;-80
2022/04/09 08:12:15;;;;;;;2.70;0.70;;;11.80;99.90;;;;;;6185096;23;20099;-81
2022/04/09 08:14:44;;;;;;;3.75;0.90;;;12.10;99.90;;;;;;6183695;23;20473;-80
2022/04/09 08:17:10;;;;;;;4.95;1.23;;;12.20;99.90;;;;;;6158044;23;20024;-80
2022/04/09 08:19:36;;;;;;;9.25;1.63;;;12.40;99.90;;;;;;6184256;23;20005;-81
2022/04/09 08:22:03;;;;;;;5.60;1.80;;;12.60;99.90;;;;;;6185254;23;20092;-81
2022/04/09 08:24:29;;;;;;;5.15;1.10;;;12.90;99.90;;;;;;6183027;23;20017;-80
2022/04/09 08:26:55;;;;;;;5.03;0.90;;;12.80;99.90;;;;;;6160036;23;20027;-82
2022/04/09 08:29:20;;;;;;;6.97;0.90;;;12.50;99.90;;;;;;6185334;23;20049;-81
2022/04/09 08:31:47;;;;;;;5.05;1.05;;;12.40;99.90;;;;;;6183017;23;20009;-81
2022/04/09 08:34:17;;;;;;;5.57;1.83;;;12.50;99.90;;;;;;6159294;23;20096;-80
2022/04/09 08:36:43;;;;;;;6.10;1.30;;;12.70;99.90;;;;;;6184960;23;20020;-81
2022/04/09 08:39:09;;;;;;;3.97;1.00;;;13.10;99.90;;;;;;6186296;23;20009;-82
2022/04/09 08:41:36;;;;;;;5.47;0.85;;;12.60;99.90;;;;;;6186013;23;20101;-82
2022/04/09 08:44:02;;;;;;;5.55;1.08;;;12.00;99.90;;;;;;6186949;23;20025;-81
2022/04/09 08:46:27;;;;;;;3.47;0.95;;;11.80;99.90;;;;;;6186615;23;20351;-81
2022/04/09 08:48:54;;;;;;;7.13;1.08;;;11.70;99.90;;;;;;6184973;23;20457;-82
2022/04/09 08:51:20;;;;;;;5.72;0.93;;;11.40;99.90;;;;;;6185679;23;20020;-81
2022/04/09 08:53:47;;;;;;;3.20;0.82;;;11.10;99.90;;;;;;6187252;23;20147;-82
2022/04/09 08:56:15;;;;;;;5.43;0.80;;;10.70;99.90;;;;;;6185968;23;20036;-81
2022/04/09 08:58:40;;;;;;;3.80;0.90;;;10.30;99.90;;;;;;6160314;23;20020;-81
2022/04/09 09:01:06;;;;;;;7.05;0.88;;;10.00;99.90;;;;;;6187028;23;20339;-80
2022/04/09 09:03:35;;;;;;;2.83;0.40;;;9.80;99.90;;;;;;6161276;23;20013;-81
2022/04/09 09:06:21;;;;;;;5.00;0.70;;;9.50;99.90;;;;;;6184703;23;20517;-80
2022/04/09 09:08:47;;;;;;;5.15;0.70;;;9.10;99.90;;;;;;6185617;23;20399;-80
2022/04/09 09:11:12;;;;;;;4.70;0.75;;;8.60;99.90;;;;;;6185740;23;20013;-79
2022/04/09 09:13:49;;;;;;;4.22;1.05;;;8.40;99.90;;;;;;6157114;23;20347;-78
2022/04/09 09:16:29;;;;;;;4.53;1.88;;;8.90;99.90;;;;;;6182550;23;20434;-76
2022/04/09 09:19:02;;;;;;;8.02;1.63;;;9.80;99.90;;;;;;6184985;23;20017;-79
2022/04/09 09:21:27;;;;;;;2.63;0.57;;;10.80;99.90;;;;;;6183383;23;20378;-80
2022/04/09 09:24:12;;;;;;;4.72;0.73;;;11.40;99.90;;;;;;6184317;23;20089;-78
2022/04/09 09:26:39;;;;;;;3.03;1.20;;;12.20;99.90;;;;;;6182128;23;20017;-78
2022/04/09 09:29:05;;;;;;;4.65;0.73;;;12.70;99.90;;;;;;6183562;23;20021;-80
2022/04/09 09:31:42;;;;;;;1.48;0.88;;;12.90;99.90;;;;;;6158807;23;20009;-82
2022/04/09 09:34:12;;;;;;;4.78;0.70;;;13.10;99.90;;;;;;6184996;23;20027;-78
2022/04/09 09:36:40;;;;;;;2.78;0.65;;;13.20;99.90;;;;;;6182477;23;20063;-79
2022/04/09 09:39:10;;;;;;;6.07;0.85;;;13.10;99.90;;;;;;6158824;23;20017;-78
2022/04/09 09:41:52;;;;;;;5.57;0.90;;;12.80;99.90;;;;;;6159026;23;20525;-82
2022/04/09 09:44:22;;;;;;;4.60;0.65;;;12.80;99.90;;;;;;6184221;23;20028;-78
2022/04/09 09:46:49;;;;;;;2.72;0.75;;;12.60;99.90;;;;;;6183147;23;20520;-79
2022/04/09 09:49:19;;;;;;;3.45;0.63;;;12.60;99.90;;;;;;6160245;23;20009;-79
2022/04/09 09:52:02;;;;;;;2.40;0.77;;;13.00;99.90;;;;;;6159530;23;20013;-78
2022/04/09 09:54:28;;;;;;;2.83;0.68;;;13.40;98.20;;;;;;6159518;23;20021;-79
2022/04/09 09:56:55;;;;;;;5.28;1.50;;;13.70;99.90;;;;;;6185115;23;20462;-80
2022/04/09 09:59:23;;;;;;;2.47;0.65;;;13.90;99.90;;;;;;6186515;23;20017;-80
2022/04/09 10:01:49;;;;;;;6.05;0.70;;;14.20;99.90;;;;;;6160249;23;20075;-83
2022/04/09 10:04:14;;;;;;;5.00;0.88;;;14.50;99.90;;;;;;6160998;23;20021;-82
2022/04/09 10:06:42;;;;;;;5.28;1.48;;;14.10;99.90;;;;;;6184670;23;20104;-80
2022/04/09 10:09:09;;;;;;;2.38;0.60;;;13.10;99.90;;;;;;6185943;23;20013;-81
2022/04/09 10:11:49;;;;;;;6.55;1.48;;;12.00;99.90;;;;;;6189985;23;20120;-81
2022/04/09 10:14:23;;;;;;;5.75;0.98;;;11.10;99.90;;;;;;6197465;23;20013;-81
2022/04/09 10:16:52;;;;;;;7.00;1.00;;;10.60;99.90;;;;;;6170516;23;20071;-81
2022/04/09 10:19:19;;;;;;;4.35;0.88;;;10.80;99.90;;;;;;6182061;23;20050;-80
2022/04/09 10:21:46;;;;;;;9.65;1.30;;;11.00;99.90;;;;;;6181617;23;20017;-79
2022/04/09 10:24:20;;;;;;;9.07;1.77;;;11.20;99.90;;;;;;6183835;23;20447;-80
2022/04/09 10:26:46;;;;;;;3.10;1.20;;;11.20;99.90;;;;;;6183684;23;20019;-79
2022/04/09 10:29:12;;;;;;;4.25;0.98;;;11.10;99.90;;;;;;6185137;23;20041;-79
2022/04/09 10:31:57;;;;;;;6.53;1.08;;;10.90;99.90;;;;;;6183606;23;20038;-80
2022/04/09 10:34:23;;;;;;;3.55;0.93;;;10.80;99.90;;;;;;6183358;23;20071;-80
2022/04/09 10:36:49;;;;;;;6.32;1.15;;;10.70;99.90;;;;;;6184874;23;20025;-80
2022/04/09 10:39:40;;;;;;;5.60;1.25;;;10.60;99.90;;;;;;6158524;23;20447;-80
2022/04/09 10:42:10;;;;;;;6.40;0.80;;;10.50;99.90;;;;;;6183600;23;20017;-80
2022/04/09 10:44:48;;;;;;;7.75;1.80;;;10.10;99.90;;;;;;6183284;23;20068;-79
2022/04/09 10:47:15;;;;;;;10.85;1.95;;;9.70;99.90;;;;;;6158673;23;20473;-81
2022/04/09 10:49:42;;;;;;;9.18;1.30;;;9.40;99.90;;;;;;6183604;23;20013;-80
2022/04/09 10:52:14;;;;;;;4.38;1.10;;;9.10;99.90;;;;;;6158283;23;20067;-79
2022/04/09 10:54:58;;;;;;;3.67;0.55;;;8.80;99.90;;;;;;6185514;23;20021;-80
2022/04/09 10:57:24;;;;;;;2.60;1.17;;;8.40;99.90;;;;;;6185238;23;20017;-79
2022/04/09 10:59:56;;;;;;;3.35;1.10;;;8.00;99.90;;;;;;6183997;23;20009;-79
2022/04/09 11:02:23;;;;;;;4.85;1.13;;;7.70;99.90;;;;;;6185159;23;20343;-79
2022/04/09 11:04:48;;;;;;;1.70;0.60;;;7.40;99.90;;;;;;6183468;23;20096;-79
2022/04/09 11:07:22;;;;;;;3.28;1.13;;;7.20;99.90;;;;;;6158740;23;20065;-79
2022/04/09 11:09:49;;;;;;;2.10;0.30;;;7.20;99.90;;;;;;6184798;23;20021;-80
2022/04/09 11:12:19;;;;;;;2.35;0.50;;;7.40;99.90;;;;;;6183123;23;20020;-80
2022/04/09 11:15:07;;;;;;;2.13;0.40;;;7.60;99.90;;;;;;6182961;23;20060;-80
2022/04/09 11:17:38;;;;;;;5.97;1.90;;;7.80;99.90;;;;;;6174775;23;20012;-80
2022/04/09 11:20:11;;;;;;;5.32;0.90;;;8.00;99.90;;;;;;6182379;23;20465;-79
2022/04/09 11:22:47;;;;;;;5.40;0.80;;;7.80;99.90;;;;;;6159185;23;20351;-80
2022/04/09 11:25:24;;;;;;;3.38;0.65;;;7.80;99.90;;;;;;6184703;23;20035;-80
2022/04/09 11:27:51;;;;;;;3.03;0.80;;;7.80;99.90;;;;;;6182603;23;20092;-79
2022/04/09 11:30:17;;;;;;;4.45;0.85;;;7.80;99.90;;;;;;6182571;23;20438;-80
2022/04/09 11:32:45;;;;;;;3.63;0.60;;;7.80;99.90;;;;;;6183129;23;20458;-80
2022/04/09 11:35:11;;;;;;;4.47;0.65;;;7.70;99.90;;;;;;6184251;23;20355;-79
2022/04/09 11:37:41;;;;;;;3.90;0.77;;;7.90;99.90;;;;;;6184035;23;20013;-79
2022/04/09 11:40:07;;;;;;;2.03;0.80;;;8.30;99.90;;;;;;6157664;23;20145;-80
2022/04/09 11:42:48;;;;;;;3.20;0.40;;;8.60;99.90;;;;;;6182474;23;20116;-80
2022/04/09 11:45:24;;;;;;;1.75;0.40;;;8.60;99.90;;;;;;6184007;23;20040;-79
2022/04/09 11:47:54;;;;;;;1.38;0.35;;;8.30;99.90;;;;;;6182096;23;20009;-79
2022/04/09 11:50:20;;;;;;;4.57;0.60;;;8.00;99.90;;;;;;6183613;23;20009;-79
2022/04/09 11:52:45;;;;;;;4.00;0.55;;;7.90;99.90;;;;;;6183671;23;20060;-79
2022/04/09 11:55:14;;;;;;;3.42;0.43;;;7.80;99.90;;;;;;6157703;23;20014;-79
2022/04/09 11:57:53;;;;;;;0.63;0.35;;;7.90;99.90;;;;;;6184048;23;20084;-79
2022/04/09 12:00:23;;;;;;;1.45;0.43;;;7.90;99.90;;;;;;6183654;23;20044;-80
2022/04/09 12:02:49;;;;;;;2.25;0.60;;;8.00;99.90;;;;;;6183895;23;20020;-79
2022/04/09 12:05:15;;;;;;;5.68;0.52;;;7.90;99.90;;;;;;6157597;23;20017;-79
2022/04/09 12:07:43;;;;;;;1.67;0.45;;;7.90;99.90;;;;;;6183975;23;20023;-79
2022/04/09 12:10:22;;;;;;;4.43;0.60;;;7.90;99.90;;;;;;6183450;23;20013;-80
2022/04/09 12:12:57;;;;;;;1.48;0.60;;;7.90;99.90;;;;;;6184560;23;20064;-79
2022/04/09 12:15:30;;;;;;;2.35;0.68;;;7.80;99.90;;;;;;6185348;23;20020;-80
2022/04/09 12:17:56;;;;;;;2.97;0.82;;;7.70;99.90;;;;;;6184652;23;20044;-79
2022/04/09 12:20:33;;;;;;;4.47;1.70;;;7.70;99.90;;;;;;6182838;23;20016;-80
2022/04/09 12:23:00;;;;;;;3.60;0.50;;;7.70;99.90;;;;;;6184165;23;20012;-79
2022/04/09 12:25:37;;;;;;;4.10;0.50;;;7.90;99.90;;;;;;6182607;23;20017;-79
2022/04/09 12:28:04;;;;;;;2.50;0.70;;;8.30;99.90;;;;;;6182584;23;20024;-76
2022/04/09 12:30:45;;;;;;;2.40;0.47;;;8.60;99.90;;;;;;6181907;23;20435;-80
2022/04/09 12:33:11;;;;;;;3.47;1.02;;;8.90;99.90;;;;;;6182373;23;20020;-79
2022/04/09 12:35:37;;;;;;;2.72;0.50;;;9.10;99.90;;;;;;6182998;23;20009;-79
2022/04/09 12:38:03;;;;;;;6.13;0.80;;;8.90;99.90;;;;;;6157552;23;20653;-79
2022/04/09 12:40:30;;;;;;;1.67;0.40;;;8.40;99.90;;;;;;6157051;23;20015;-79
2022/04/09 12:42:55;;;;;;;1.35;0.52;;;7.70;99.90;;;;;;6182549;23;20393;-79
2022/04/09 12:45:23;;;;;;;1.02;0.85;;;7.20;99.90;;;;;;6184330;23;20045;-80
2022/04/09 12:47:58;;;;;;;1.55;0.30;;;6.70;99.90;;;;;;6184418;23;20009;-80
2022/04/09 12:50:27;;;;;;;1.30;0.38;;;6.50;99.90;;;;;;6183677;23;20016;-81
2022/04/09 12:52:55;;;;;;;1.20;0.40;;;6.40;99.90;;;;;;6158426;23;20051;-80
2022/04/09 12:55:22;;;;;;;1.10;0.50;;;6.50;99.90;;;;;;6183440;23;20454;-80
2022/04/09 12:57:48;;;;;;;5.28;0.68;;;6.70;99.90;;;;;;6184775;23;20012;-80
2022/04/09 13:00:14;;;;;;;4.97;0.60;;;7.00;99.90;;;;;;6182557;23;20009;-80